sensor_id;sensor_type;location;lat;lon;timestamp;P1;durP1;ratioP1;P2;durP2;ratioP2
24873;SDS011;12945;42.648;23.370;2023-04-10T00:00:23;12.90;;;8.60;;
24873;SDS011;12945;42.648;23.370;2023-04-10T00:02:48;12.07;;;8.65;;
24873;SDS011;12945;42.648;23.370;2023-04-10T00:05:13;10.70;;;7.30;;
24873;SDS011;12945;42.648;23.370;2023-04-10T00:07:39;15.25;;;8.30;;
24873;SDS011;12945;42.648;23.370;2023-04-10T00:10:04;12.18;;;7.18;;
24873;SDS011;12945;42.648;23.370;2023-04-10T00:12:30;9.85;;;6.88;;
24873;SDS011;12945;42.648;23.370;2023-04-10T00:14:55;11.02;;;6.65;;
24873;SDS011;12945;42.648;23.370;2023-04-10T00:17:20;8.55;;;6.07;;
24873;SDS011;12945;42.648;23.370;2023-04-10T00:19:46;8.77;;;6.25;;
24873;SDS011;12945;42.648;23.370;2023-04-10T00:22:11;9.07;;;5.75;;
24873;SDS011;12945;42.648;23.370;2023-04-10T00:24:36;8.77;;;6.18;;
24873;SDS011;12945;42.648;23.370;2023-04-10T00:27:02;9.48;;;5.93;;
24873;SDS011;12945;42.648;23.370;2023-04-10T00:29:27;7.97;;;5.38;;
24873;SDS011;12945;42.648;23.370;2023-04-10T00:31:52;10.43;;;5.68;;
24873;SDS011;12945;42.648;23.370;2023-04-10T00:34:18;9.18;;;5.63;;
24873;SDS011;12945;42.648;23.370;2023-04-10T00:36:44;8.93;;;5.65;;
24873;SDS011;12945;42.648;23.370;2023-04-10T00:39:09;7.80;;;5.90;;
24873;SDS011;12945;42.648;23.370;2023-04-10T00:41:35;8.77;;;6.07;;
24873;SDS011;12945;42.648;23.370;2023-04-10T00:44:00;7.95;;;5.65;;
24873;SDS011;12945;42.648;23.370;2023-04-10T00:46:26;8.75;;;5.35;;
24873;SDS011;12945;42.648;23.370;2023-04-10T00:48:52;7.40;;;5.13;;
24873;SDS011;12945;42.648;23.370;2023-04-10T00:51:18;7.90;;;5.53;;
24873;SDS011;12945;42.648;23.370;2023-04-10T00:53:46;7.15;;;5.03;;
24873;SDS011;12945;42.648;23.370;2023-04-10T00:56:11;7.80;;;5.03;;
24873;SDS011;12945;42.648;23.370;2023-04-10T00:58:36;8.90;;;5.45;;
24873;SDS011;12945;42.648;23.370;2023-04-10T01:01:02;7.40;;;5.43;;
24873;SDS011;12945;42.648;23.370;2023-04-10T01:03:27;8.32;;;5.40;;
24873;SDS011;12945;42.648;23.370;2023-04-10T01:18:14;8.50;;;5.60;;
24873;SDS011;12945;42.648;23.370;2023-04-10T01:20:40;9.13;;;6.05;;
24873;SDS011;12945;42.648;23.370;2023-04-10T01:23:22;9.07;;;6.15;;
24873;SDS011;12945;42.648;23.370;2023-04-10T01:26:00;9.70;;;6.82;;
24873;SDS011;12945;42.648;23.370;2023-04-10T01:31:12;10.70;;;6.80;;
24873;SDS011;12945;42.648;23.370;2023-04-10T01:33:41;9.48;;;6.70;;
24873;SDS011;12945;42.648;23.370;2023-04-10T01:36:09;8.98;;;6.32;;
24873;SDS011;12945;42.648;23.370;2023-04-10T01:38:35;8.15;;;5.85;;
24873;SDS011;12945;42.648;23.370;2023-04-10T01:41:03;10.35;;;6.20;;
24873;SDS011;12945;42.648;23.370;2023-04-10T01:43:29;8.43;;;5.60;;
24873;SDS011;12945;42.648;23.370;2023-04-10T01:45:56;8.13;;;5.82;;
24873;SDS011;12945;42.648;23.370;2023-04-10T01:48:22;7.00;;;5.50;;
24873;SDS011;12945;42.648;23.370;2023-04-10T01:50:47;8.55;;;6.15;;
24873;SDS011;12945;42.648;23.370;2023-04-10T01:53:13;9.18;;;5.80;;
24873;SDS011;12945;42.648;23.370;2023-04-10T01:55:39;7.90;;;6.15;;
24873;SDS011;12945;42.648;23.370;2023-04-10T01:58:05;8.52;;;6.10;;
24873;SDS011;12945;42.648;23.370;2023-04-10T02:00:36;8.55;;;5.50;;
24873;SDS011;12945;42.648;23.370;2023-04-10T02:03:01;8.30;;;5.97;;
24873;SDS011;12945;42.648;23.370;2023-04-10T02:05:27;9.75;;;6.00;;
24873;SDS011;12945;42.648;23.370;2023-04-10T02:10:40;8.68;;;6.10;;
24873;SDS011;12945;42.648;23.370;2023-04-10T02:13:07;8.48;;;6.00;;
24873;SDS011;12945;42.648;23.370;2023-04-10T02:15:35;8.40;;;5.90;;
24873;SDS011;12945;42.648;23.370;2023-04-10T02:18:01;9.32;;;6.10;;
24873;SDS011;12945;42.648;23.370;2023-04-10T02:20:28;7.85;;;6.05;;
24873;SDS011;12945;42.648;23.370;2023-04-10T02:22:55;8.07;;;5.80;;
24873;SDS011;12945;42.648;23.370;2023-04-10T02:25:20;7.63;;;5.72;;
24873;SDS011;12945;42.648;23.370;2023-04-10T02:27:45;9.05;;;6.53;;
24873;SDS011;12945;42.648;23.370;2023-04-10T02:30:11;9.18;;;6.82;;
24873;SDS011;12945;42.648;23.370;2023-04-10T02:32:36;8.93;;;6.57;;
24873;SDS011;12945;42.648;23.370;2023-04-10T02:35:02;8.88;;;6.28;;
24873;SDS011;12945;42.648;23.370;2023-04-10T02:37:27;8.90;;;6.80;;
24873;SDS011;12945;42.648;23.370;2023-04-10T02:39:52;9.00;;;6.18;;
24873;SDS011;12945;42.648;23.370;2023-04-10T02:42:21;9.43;;;6.90;;
24873;SDS011;12945;42.648;23.370;2023-04-10T02:44:47;8.85;;;6.70;;
24873;SDS011;12945;42.648;23.370;2023-04-10T02:47:12;9.52;;;6.82;;
24873;SDS011;12945;42.648;23.370;2023-04-10T02:49:37;9.55;;;6.97;;
24873;SDS011;12945;42.648;23.370;2023-04-10T02:52:03;9.18;;;6.18;;
24873;SDS011;12945;42.648;23.370;2023-04-10T02:54:28;9.15;;;6.63;;
24873;SDS011;12945;42.648;23.370;2023-04-10T02:56:54;9.38;;;6.68;;
24873;SDS011;12945;42.648;23.370;2023-04-10T02:59:20;9.20;;;6.82;;
24873;SDS011;12945;42.648;23.370;2023-04-10T03:01:46;8.98;;;6.53;;
24873;SDS011;12945;42.648;23.370;2023-04-10T03:04:12;7.93;;;6.38;;
24873;SDS011;12945;42.648;23.370;2023-04-10T03:06:37;10.05;;;6.32;;
24873;SDS011;12945;42.648;23.370;2023-04-10T03:09:06;9.20;;;6.70;;
24873;SDS011;12945;42.648;23.370;2023-04-10T03:11:31;9.85;;;7.00;;
24873;SDS011;12945;42.648;23.370;2023-04-10T03:13:57;8.95;;;6.75;;
24873;SDS011;12945;42.648;23.370;2023-04-10T03:16:22;10.32;;;6.88;;
24873;SDS011;12945;42.648;23.370;2023-04-10T03:18:47;11.75;;;6.85;;
24873;SDS011;12945;42.648;23.370;2023-04-10T03:21:14;11.48;;;7.18;;
24873;SDS011;12945;42.648;23.370;2023-04-10T03:23:40;11.30;;;7.50;;
24873;SDS011;12945;42.648;23.370;2023-04-10T03:26:05;11.02;;;8.00;;
24873;SDS011;12945;42.648;23.370;2023-04-10T03:28:31;10.88;;;7.28;;
24873;SDS011;12945;42.648;23.370;2023-04-10T03:30:59;11.25;;;8.02;;
24873;SDS011;12945;42.648;23.370;2023-04-10T03:33:25;11.80;;;8.00;;
24873;SDS011;12945;42.648;23.370;2023-04-10T03:35:50;12.00;;;6.88;;
24873;SDS011;12945;42.648;23.370;2023-04-10T03:38:16;14.38;;;8.35;;
24873;SDS011;12945;42.648;23.370;2023-04-10T03:40:41;14.45;;;7.90;;
24873;SDS011;12945;42.648;23.370;2023-04-10T03:43:06;10.50;;;7.65;;
24873;SDS011;12945;42.648;23.370;2023-04-10T03:45:32;11.68;;;7.97;;
24873;SDS011;12945;42.648;23.370;2023-04-10T03:47:58;10.88;;;7.60;;
24873;SDS011;12945;42.648;23.370;2023-04-10T03:50:23;13.40;;;7.80;;
24873;SDS011;12945;42.648;23.370;2023-04-10T03:52:50;11.27;;;7.82;;
24873;SDS011;12945;42.648;23.370;2023-04-10T03:55:15;10.52;;;7.63;;
24873;SDS011;12945;42.648;23.370;2023-04-10T03:57:47;11.45;;;7.03;;
24873;SDS011;12945;42.648;23.370;2023-04-10T04:00:13;11.52;;;7.35;;
24873;SDS011;12945;42.648;23.370;2023-04-10T04:02:38;12.02;;;7.55;;
24873;SDS011;12945;42.648;23.370;2023-04-10T04:05:03;12.43;;;7.15;;
24873;SDS011;12945;42.648;23.370;2023-04-10T04:07:29;17.38;;;7.50;;
24873;SDS011;12945;42.648;23.370;2023-04-10T04:09:55;12.77;;;7.38;;
24873;SDS011;12945;42.648;23.370;2023-04-10T04:12:21;15.13;;;7.97;;
24873;SDS011;12945;42.648;23.370;2023-04-10T04:14:46;11.48;;;8.15;;
24873;SDS011;12945;42.648;23.370;2023-04-10T04:17:11;18.42;;;8.35;;
24873;SDS011;12945;42.648;23.370;2023-04-10T04:19:37;17.15;;;8.68;;
24873;SDS011;12945;42.648;23.370;2023-04-10T04:22:03;12.05;;;8.52;;
24873;SDS011;12945;42.648;23.370;2023-04-10T04:24:29;15.02;;;8.93;;
24873;SDS011;12945;42.648;23.370;2023-04-10T04:26:54;16.17;;;9.05;;
24873;SDS011;12945;42.648;23.370;2023-04-10T04:29:21;16.88;;;9.65;;
24873;SDS011;12945;42.648;23.370;2023-04-10T04:31:46;18.00;;;10.55;;
24873;SDS011;12945;42.648;23.370;2023-04-10T04:34:11;18.08;;;10.55;;
24873;SDS011;12945;42.648;23.370;2023-04-10T04:36:37;17.80;;;10.18;;
24873;SDS011;12945;42.648;23.370;2023-04-10T04:39:02;16.85;;;10.18;;
24873;SDS011;12945;42.648;23.370;2023-04-10T04:41:28;17.30;;;10.18;;
24873;SDS011;12945;42.648;23.370;2023-04-10T04:43:56;17.60;;;9.88;;
24873;SDS011;12945;42.648;23.370;2023-04-10T04:46:21;23.70;;;10.73;;
24873;SDS011;12945;42.648;23.370;2023-04-10T04:48:46;15.18;;;9.13;;
24873;SDS011;12945;42.648;23.370;2023-04-10T04:51:12;19.52;;;9.88;;
24873;SDS011;12945;42.648;23.370;2023-04-10T04:53:37;18.92;;;10.85;;
24873;SDS011;12945;42.648;23.370;2023-04-10T04:56:03;24.13;;;10.40;;
24873;SDS011;12945;42.648;23.370;2023-04-10T04:58:28;18.77;;;10.15;;
24873;SDS011;12945;42.648;23.370;2023-04-10T05:00:53;24.88;;;10.85;;
24873;SDS011;12945;42.648;23.370;2023-04-10T05:03:19;18.80;;;10.48;;
24873;SDS011;12945;42.648;23.370;2023-04-10T05:05:44;17.35;;;10.48;;
24873;SDS011;12945;42.648;23.370;2023-04-10T05:08:09;16.98;;;9.88;;
24873;SDS011;12945;42.648;23.370;2023-04-10T05:10:35;17.17;;;10.38;;
24873;SDS011;12945;42.648;23.370;2023-04-10T05:13:00;15.32;;;9.77;;
24873;SDS011;12945;42.648;23.370;2023-04-10T05:15:26;17.45;;;10.25;;
24873;SDS011;12945;42.648;23.370;2023-04-10T05:17:51;14.68;;;10.10;;
24873;SDS011;12945;42.648;23.370;2023-04-10T05:20:17;15.43;;;9.52;;
24873;SDS011;12945;42.648;23.370;2023-04-10T05:22:43;14.43;;;8.50;;
24873;SDS011;12945;42.648;23.370;2023-04-10T05:25:08;23.73;;;9.57;;
24873;SDS011;12945;42.648;23.370;2023-04-10T05:27:34;13.35;;;9.00;;
24873;SDS011;12945;42.648;23.370;2023-04-10T05:29:59;12.55;;;8.65;;
24873;SDS011;12945;42.648;23.370;2023-04-10T05:32:24;16.45;;;8.77;;
24873;SDS011;12945;42.648;23.370;2023-04-10T05:34:50;12.30;;;8.40;;
24873;SDS011;12945;42.648;23.370;2023-04-10T05:37:15;12.63;;;8.75;;
24873;SDS011;12945;42.648;23.370;2023-04-10T05:39:40;18.42;;;8.63;;
24873;SDS011;12945;42.648;23.370;2023-04-10T05:42:05;15.00;;;9.02;;
24873;SDS011;12945;42.648;23.370;2023-04-10T05:44:31;13.93;;;7.65;;
24873;SDS011;12945;42.648;23.370;2023-04-10T05:46:56;17.67;;;9.90;;
24873;SDS011;12945;42.648;23.370;2023-04-10T05:49:21;12.35;;;8.73;;
24873;SDS011;12945;42.648;23.370;2023-04-10T05:51:48;16.35;;;8.63;;
24873;SDS011;12945;42.648;23.370;2023-04-10T05:54:14;15.18;;;9.65;;
24873;SDS011;12945;42.648;23.370;2023-04-10T05:56:40;13.80;;;9.00;;
24873;SDS011;12945;42.648;23.370;2023-04-10T05:59:05;12.88;;;8.50;;
24873;SDS011;12945;42.648;23.370;2023-04-10T06:01:30;15.02;;;9.02;;
24873;SDS011;12945;42.648;23.370;2023-04-10T06:03:56;18.95;;;9.18;;
24873;SDS011;12945;42.648;23.370;2023-04-10T06:06:21;15.10;;;9.80;;
24873;SDS011;12945;42.648;23.370;2023-04-10T06:08:48;16.85;;;9.68;;
24873;SDS011;12945;42.648;23.370;2023-04-10T06:11:13;15.30;;;10.63;;
24873;SDS011;12945;42.648;23.370;2023-04-10T06:13:39;14.77;;;9.73;;
24873;SDS011;12945;42.648;23.370;2023-04-10T06:16:05;15.48;;;10.25;;
24873;SDS011;12945;42.648;23.370;2023-04-10T06:18:30;16.63;;;10.05;;
24873;SDS011;12945;42.648;23.370;2023-04-10T06:20:55;16.33;;;9.80;;
24873;SDS011;12945;42.648;23.370;2023-04-10T06:23:24;17.30;;;9.90;;
24873;SDS011;12945;42.648;23.370;2023-04-10T06:25:50;22.63;;;9.95;;
24873;SDS011;12945;42.648;23.370;2023-04-10T06:28:15;16.42;;;11.00;;
24873;SDS011;12945;42.648;23.370;2023-04-10T06:30:41;15.95;;;11.50;;
24873;SDS011;12945;42.648;23.370;2023-04-10T06:33:06;15.80;;;11.82;;
24873;SDS011;12945;42.648;23.370;2023-04-10T06:35:31;16.88;;;11.50;;
24873;SDS011;12945;42.648;23.370;2023-04-10T06:37:57;14.95;;;10.65;;
24873;SDS011;12945;42.648;23.370;2023-04-10T06:40:22;18.08;;;11.70;;
24873;SDS011;12945;42.648;23.370;2023-04-10T06:42:47;15.10;;;11.27;;
24873;SDS011;12945;42.648;23.370;2023-04-10T06:45:13;17.10;;;11.85;;
24873;SDS011;12945;42.648;23.370;2023-04-10T06:47:38;22.10;;;11.82;;
24873;SDS011;12945;42.648;23.370;2023-04-10T06:50:04;15.40;;;11.40;;
24873;SDS011;12945;42.648;23.370;2023-04-10T06:52:30;17.05;;;12.02;;
24873;SDS011;12945;42.648;23.370;2023-04-10T06:54:56;18.02;;;12.27;;
24873;SDS011;12945;42.648;23.370;2023-04-10T06:57:21;15.90;;;11.60;;
24873;SDS011;12945;42.648;23.370;2023-04-10T06:59:46;19.40;;;11.88;;
24873;SDS011;12945;42.648;23.370;2023-04-10T07:02:12;14.07;;;11.15;;
24873;SDS011;12945;42.648;23.370;2023-04-10T07:04:37;17.45;;;11.73;;
24873;SDS011;12945;42.648;23.370;2023-04-10T07:07:02;19.58;;;11.65;;
24873;SDS011;12945;42.648;23.370;2023-04-10T07:09:29;18.30;;;12.27;;
24873;SDS011;12945;42.648;23.370;2023-04-10T07:11:54;18.25;;;11.80;;
24873;SDS011;12945;42.648;23.370;2023-04-10T07:14:20;19.48;;;11.45;;
24873;SDS011;12945;42.648;23.370;2023-04-10T07:16:45;18.08;;;12.38;;
24873;SDS011;12945;42.648;23.370;2023-04-10T07:19:11;20.23;;;12.80;;
24873;SDS011;12945;42.648;23.370;2023-04-10T07:21:37;20.20;;;13.23;;
24873;SDS011;12945;42.648;23.370;2023-04-10T07:24:02;20.92;;;13.13;;
24873;SDS011;12945;42.648;23.370;2023-04-10T07:26:27;25.38;;;13.82;;
24873;SDS011;12945;42.648;23.370;2023-04-10T07:28:53;18.00;;;13.40;;
24873;SDS011;12945;42.648;23.370;2023-04-10T07:31:18;23.55;;;13.85;;
24873;SDS011;12945;42.648;23.370;2023-04-10T07:33:44;18.73;;;13.25;;
24873;SDS011;12945;42.648;23.370;2023-04-10T07:36:09;21.20;;;13.77;;
24873;SDS011;12945;42.648;23.370;2023-04-10T07:38:35;21.75;;;14.00;;
24873;SDS011;12945;42.648;23.370;2023-04-10T07:41:01;23.05;;;14.35;;
24873;SDS011;12945;42.648;23.370;2023-04-10T07:43:27;21.48;;;13.20;;
24873;SDS011;12945;42.648;23.370;2023-04-10T07:45:52;17.27;;;12.85;;
24873;SDS011;12945;42.648;23.370;2023-04-10T07:48:17;22.52;;;13.85;;
24873;SDS011;12945;42.648;23.370;2023-04-10T07:50:43;23.02;;;13.15;;
24873;SDS011;12945;42.648;23.370;2023-04-10T07:53:08;20.23;;;13.48;;
24873;SDS011;12945;42.648;23.370;2023-04-10T07:55:37;19.60;;;13.77;;
24873;SDS011;12945;42.648;23.370;2023-04-10T07:58:03;19.57;;;11.27;;
24873;SDS011;12945;42.648;23.370;2023-04-10T08:00:29;22.27;;;13.73;;
24873;SDS011;12945;42.648;23.370;2023-04-10T08:02:54;26.10;;;15.10;;
24873;SDS011;12945;42.648;23.370;2023-04-10T08:05:20;22.48;;;13.82;;
24873;SDS011;12945;42.648;23.370;2023-04-10T08:07:45;22.10;;;14.23;;
24873;SDS011;12945;42.648;23.370;2023-04-10T08:10:11;22.75;;;14.25;;
24873;SDS011;12945;42.648;23.370;2023-04-10T08:12:36;27.02;;;13.85;;
24873;SDS011;12945;42.648;23.370;2023-04-10T08:15:01;19.42;;;12.90;;
24873;SDS011;12945;42.648;23.370;2023-04-10T08:17:27;24.13;;;14.57;;
24873;SDS011;12945;42.648;23.370;2023-04-10T08:19:52;23.52;;;13.82;;
24873;SDS011;12945;42.648;23.370;2023-04-10T08:22:17;23.45;;;14.30;;
24873;SDS011;12945;42.648;23.370;2023-04-10T08:24:43;20.65;;;14.15;;
24873;SDS011;12945;42.648;23.370;2023-04-10T08:27:08;18.90;;;12.75;;
24873;SDS011;12945;42.648;23.370;2023-04-10T08:29:33;21.88;;;14.13;;
24873;SDS011;12945;42.648;23.370;2023-04-10T08:31:59;19.23;;;12.95;;
24873;SDS011;12945;42.648;23.370;2023-04-10T08:34:25;19.60;;;13.50;;
24873;SDS011;12945;42.648;23.370;2023-04-10T08:36:51;16.67;;;12.90;;
24873;SDS011;12945;42.648;23.370;2023-04-10T08:39:16;19.90;;;13.15;;
24873;SDS011;12945;42.648;23.370;2023-04-10T08:41:42;20.83;;;13.18;;
24873;SDS011;12945;42.648;23.370;2023-04-10T08:44:07;24.00;;;13.02;;
24873;SDS011;12945;42.648;23.370;2023-04-10T08:46:33;20.58;;;13.07;;
24873;SDS011;12945;42.648;23.370;2023-04-10T08:49:00;28.45;;;13.38;;
24873;SDS011;12945;42.648;23.370;2023-04-10T08:51:28;18.77;;;13.18;;
24873;SDS011;12945;42.648;23.370;2023-04-10T08:53:57;16.13;;;12.70;;
24873;SDS011;12945;42.648;23.370;2023-04-10T08:56:23;19.73;;;12.98;;
24873;SDS011;12945;42.648;23.370;2023-04-10T08:58:48;18.05;;;13.25;;
24873;SDS011;12945;42.648;23.370;2023-04-10T09:01:15;21.60;;;13.30;;
24873;SDS011;12945;42.648;23.370;2023-04-10T09:03:41;19.40;;;12.20;;
24873;SDS011;12945;42.648;23.370;2023-04-10T09:06:06;16.77;;;12.63;;
24873;SDS011;12945;42.648;23.370;2023-04-10T09:08:32;21.20;;;13.02;;
24873;SDS011;12945;42.648;23.370;2023-04-10T09:10:58;27.30;;;13.40;;
24873;SDS011;12945;42.648;23.370;2023-04-10T09:16:01;17.48;;;11.65;;
24873;SDS011;12945;42.648;23.370;2023-04-10T09:21:08;19.83;;;12.60;;
24873;SDS011;12945;42.648;23.370;2023-04-10T09:23:33;19.25;;;12.85;;
24873;SDS011;12945;42.648;23.370;2023-04-10T09:25:59;20.05;;;12.02;;
24873;SDS011;12945;42.648;23.370;2023-04-10T09:28:24;16.75;;;12.38;;
24873;SDS011;12945;42.648;23.370;2023-04-10T09:30:49;18.58;;;12.60;;
24873;SDS011;12945;42.648;23.370;2023-04-10T09:35:44;19.70;;;12.10;;
24873;SDS011;12945;42.648;23.370;2023-04-10T09:38:17;20.85;;;13.40;;
24873;SDS011;12945;42.648;23.370;2023-04-10T09:40:42;22.73;;;12.57;;
24873;SDS011;12945;42.648;23.370;2023-04-10T09:43:18;21.92;;;12.77;;
24873;SDS011;12945;42.648;23.370;2023-04-10T09:45:47;19.13;;;12.75;;
24873;SDS011;12945;42.648;23.370;2023-04-10T09:48:12;17.23;;;12.93;;
24873;SDS011;12945;42.648;23.370;2023-04-10T09:50:38;19.15;;;13.57;;
24873;SDS011;12945;42.648;23.370;2023-04-10T09:53:11;21.15;;;13.18;;
24873;SDS011;12945;42.648;23.370;2023-04-10T09:55:40;16.73;;;11.88;;
24873;SDS011;12945;42.648;23.370;2023-04-10T09:58:08;15.25;;;11.60;;
24873;SDS011;12945;42.648;23.370;2023-04-10T10:00:43;15.50;;;10.98;;
24873;SDS011;12945;42.648;23.370;2023-04-10T10:03:13;14.50;;;11.23;;
24873;SDS011;12945;42.648;23.370;2023-04-10T10:05:39;15.70;;;10.50;;
24873;SDS011;12945;42.648;23.370;2023-04-10T10:08:05;16.52;;;10.20;;
24873;SDS011;12945;42.648;23.370;2023-04-10T10:10:30;17.52;;;10.25;;
24873;SDS011;12945;42.648;23.370;2023-04-10T10:13:00;13.50;;;9.30;;
24873;SDS011;12945;42.648;23.370;2023-04-10T10:15:37;14.97;;;10.50;;
24873;SDS011;12945;42.648;23.370;2023-04-10T10:20:30;13.13;;;9.43;;
24873;SDS011;12945;42.648;23.370;2023-04-10T10:22:57;15.35;;;9.52;;
24873;SDS011;12945;42.648;23.370;2023-04-10T10:25:25;14.98;;;10.23;;
24873;SDS011;12945;42.648;23.370;2023-04-10T10:27:50;13.35;;;9.35;;
24873;SDS011;12945;42.648;23.370;2023-04-10T10:30:18;14.80;;;8.93;;
24873;SDS011;12945;42.648;23.370;2023-04-10T10:32:44;12.05;;;9.65;;
24873;SDS011;12945;42.648;23.370;2023-04-10T10:35:10;14.50;;;9.02;;
24873;SDS011;12945;42.648;23.370;2023-04-10T10:37:35;10.23;;;8.40;;
24873;SDS011;12945;42.648;23.370;2023-04-10T10:40:16;12.15;;;9.63;;
24873;SDS011;12945;42.648;23.370;2023-04-10T10:42:55;16.30;;;9.35;;
24873;SDS011;12945;42.648;23.370;2023-04-10T10:45:31;15.13;;;10.00;;
24873;SDS011;12945;42.648;23.370;2023-04-10T10:47:57;14.98;;;10.77;;
24873;SDS011;12945;42.648;23.370;2023-04-10T10:50:22;12.65;;;9.85;;
24873;SDS011;12945;42.648;23.370;2023-04-10T10:52:48;15.20;;;10.15;;
24873;SDS011;12945;42.648;23.370;2023-04-10T10:55:26;15.00;;;10.45;;
24873;SDS011;12945;42.648;23.370;2023-04-10T10:57:54;16.63;;;11.32;;
24873;SDS011;12945;42.648;23.370;2023-04-10T11:00:23;13.23;;;10.02;;
24873;SDS011;12945;42.648;23.370;2023-04-10T11:13:29;12.38;;;8.80;;
24873;SDS011;12945;42.648;23.370;2023-04-10T11:15:55;14.98;;;9.65;;
24873;SDS011;12945;42.648;23.370;2023-04-10T11:19:00;11.20;;;8.90;;
24873;SDS011;12945;42.648;23.370;2023-04-10T11:21:24;10.13;;;8.43;;
24873;SDS011;12945;42.648;23.370;2023-04-10T11:31:22;9.32;;;8.02;;
24873;SDS011;12945;42.648;23.370;2023-04-10T11:33:49;13.93;;;8.32;;
24873;SDS011;12945;42.648;23.370;2023-04-10T11:36:17;12.40;;;9.20;;
24873;SDS011;12945;42.648;23.370;2023-04-10T11:38:54;13.20;;;9.98;;
24873;SDS011;12945;42.648;23.370;2023-04-10T11:41:49;12.00;;;9.30;;
24873;SDS011;12945;42.648;23.370;2023-04-10T11:46:46;11.20;;;9.50;;
24873;SDS011;12945;42.648;23.370;2023-04-10T11:49:15;12.30;;;8.77;;
24873;SDS011;12945;42.648;23.370;2023-04-10T11:51:43;15.25;;;8.90;;
24873;SDS011;12945;42.648;23.370;2023-04-10T11:54:10;10.73;;;8.85;;
24873;SDS011;12945;42.648;23.370;2023-04-10T11:56:37;9.63;;;8.18;;
24873;SDS011;12945;42.648;23.370;2023-04-10T11:59:02;11.57;;;8.90;;
24873;SDS011;12945;42.648;23.370;2023-04-10T12:01:33;10.18;;;8.40;;
24873;SDS011;12945;42.648;23.370;2023-04-10T12:03:58;14.07;;;9.30;;
24873;SDS011;12945;42.648;23.370;2023-04-10T12:07:02;13.05;;;9.52;;
24873;SDS011;12945;42.648;23.370;2023-04-10T12:12:41;11.30;;;9.15;;
24873;SDS011;12945;42.648;23.370;2023-04-10T12:17:51;13.85;;;10.02;;
24873;SDS011;12945;42.648;23.370;2023-04-10T12:20:18;14.18;;;9.90;;
24873;SDS011;12945;42.648;23.370;2023-04-10T12:22:44;13.52;;;10.40;;
24873;SDS011;12945;42.648;23.370;2023-04-10T12:25:11;12.52;;;9.60;;
24873;SDS011;12945;42.648;23.370;2023-04-10T12:27:36;12.50;;;9.05;;
24873;SDS011;12945;42.648;23.370;2023-04-10T12:30:05;12.77;;;10.07;;
24873;SDS011;12945;42.648;23.370;2023-04-10T12:32:31;11.55;;;9.60;;
24873;SDS011;12945;42.648;23.370;2023-04-10T12:34:57;12.18;;;9.90;;
24873;SDS011;12945;42.648;23.370;2023-04-10T12:40:07;12.88;;;9.85;;
24873;SDS011;12945;42.648;23.370;2023-04-10T12:42:32;13.88;;;8.88;;
24873;SDS011;12945;42.648;23.370;2023-04-10T12:45:03;8.98;;;7.07;;
24873;SDS011;12945;42.648;23.370;2023-04-10T12:47:29;10.43;;;6.85;;
24873;SDS011;12945;42.648;23.370;2023-04-10T12:52:29;9.63;;;6.25;;
24873;SDS011;12945;42.648;23.370;2023-04-10T12:55:06;7.80;;;6.45;;
24873;SDS011;12945;42.648;23.370;2023-04-10T12:57:31;10.10;;;7.13;;
24873;SDS011;12945;42.648;23.370;2023-04-10T12:59:57;8.80;;;6.90;;
24873;SDS011;12945;42.648;23.370;2023-04-10T13:02:22;9.43;;;7.55;;
24873;SDS011;12945;42.648;23.370;2023-04-10T13:04:48;8.80;;;6.80;;
24873;SDS011;12945;42.648;23.370;2023-04-10T13:07:14;11.45;;;8.70;;
24873;SDS011;12945;42.648;23.370;2023-04-10T13:09:39;16.80;;;9.20;;
24873;SDS011;12945;42.648;23.370;2023-04-10T13:12:05;12.13;;;8.80;;
24873;SDS011;12945;42.648;23.370;2023-04-10T13:14:31;9.65;;;7.82;;
24873;SDS011;12945;42.648;23.370;2023-04-10T13:16:57;9.95;;;8.32;;
24873;SDS011;12945;42.648;23.370;2023-04-10T13:19:22;10.38;;;8.43;;
24873;SDS011;12945;42.648;23.370;2023-04-10T13:21:48;9.38;;;7.93;;
24873;SDS011;12945;42.648;23.370;2023-04-10T13:24:15;11.73;;;8.10;;
24873;SDS011;12945;42.648;23.370;2023-04-10T13:26:40;12.70;;;8.38;;
24873;SDS011;12945;42.648;23.370;2023-04-10T13:29:06;9.15;;;7.25;;
24873;SDS011;12945;42.648;23.370;2023-04-10T13:31:31;9.95;;;7.70;;
24873;SDS011;12945;42.648;23.370;2023-04-10T13:33:56;11.07;;;7.82;;
24873;SDS011;12945;42.648;23.370;2023-04-10T13:36:22;15.52;;;7.88;;
24873;SDS011;12945;42.648;23.370;2023-04-10T13:38:47;10.05;;;8.00;;
24873;SDS011;12945;42.648;23.370;2023-04-10T13:41:12;10.25;;;7.57;;
24873;SDS011;12945;42.648;23.370;2023-04-10T13:43:38;9.35;;;8.23;;
24873;SDS011;12945;42.648;23.370;2023-04-10T13:46:04;11.02;;;8.40;;
24873;SDS011;12945;42.648;23.370;2023-04-10T13:48:29;10.75;;;8.48;;
24873;SDS011;12945;42.648;23.370;2023-04-10T13:50:55;13.45;;;8.57;;
24873;SDS011;12945;42.648;23.370;2023-04-10T13:53:21;12.25;;;9.40;;
24873;SDS011;12945;42.648;23.370;2023-04-10T13:55:46;21.35;;;9.98;;
24873;SDS011;12945;42.648;23.370;2023-04-10T13:58:14;11.95;;;9.25;;
24873;SDS011;12945;42.648;23.370;2023-04-10T14:00:42;11.55;;;9.35;;
24873;SDS011;12945;42.648;23.370;2023-04-10T14:03:08;11.68;;;9.55;;
24873;SDS011;12945;42.648;23.370;2023-04-10T14:05:36;13.85;;;10.18;;
24873;SDS011;12945;42.648;23.370;2023-04-10T14:08:01;13.45;;;11.20;;
24873;SDS011;12945;42.648;23.370;2023-04-10T14:10:26;15.68;;;11.45;;
24873;SDS011;12945;42.648;23.370;2023-04-10T14:12:52;16.17;;;11.80;;
24873;SDS011;12945;42.648;23.370;2023-04-10T14:15:17;14.02;;;11.32;;
24873;SDS011;12945;42.648;23.370;2023-04-10T14:17:43;15.75;;;11.15;;
24873;SDS011;12945;42.648;23.370;2023-04-10T14:20:08;16.05;;;11.55;;
24873;SDS011;12945;42.648;23.370;2023-04-10T14:22:35;13.95;;;10.55;;
24873;SDS011;12945;42.648;23.370;2023-04-10T14:25:00;15.32;;;10.20;;
24873;SDS011;12945;42.648;23.370;2023-04-10T14:27:26;15.55;;;10.27;;
24873;SDS011;12945;42.648;23.370;2023-04-10T14:29:51;7.35;;;5.80;;
24873;SDS011;12945;42.648;23.370;2023-04-10T14:32:16;10.65;;;6.13;;
24873;SDS011;12945;42.648;23.370;2023-04-10T14:34:42;7.40;;;6.10;;
24873;SDS011;12945;42.648;23.370;2023-04-10T14:37:07;7.55;;;6.15;;
24873;SDS011;12945;42.648;23.370;2023-04-10T14:39:33;11.27;;;6.70;;
24873;SDS011;12945;42.648;23.370;2023-04-10T14:41:59;9.05;;;7.00;;
24873;SDS011;12945;42.648;23.370;2023-04-10T14:44:26;13.55;;;7.40;;
24873;SDS011;12945;42.648;23.370;2023-04-10T14:46:51;11.63;;;6.97;;
24873;SDS011;12945;42.648;23.370;2023-04-10T14:49:16;10.32;;;8.07;;
24873;SDS011;12945;42.648;23.370;2023-04-10T14:51:42;11.75;;;8.13;;
24873;SDS011;12945;42.648;23.370;2023-04-10T14:54:08;10.48;;;7.90;;
24873;SDS011;12945;42.648;23.370;2023-04-10T14:56:33;9.07;;;7.20;;
24873;SDS011;12945;42.648;23.370;2023-04-10T14:58:59;11.13;;;6.88;;
24873;SDS011;12945;42.648;23.370;2023-04-10T15:01:24;9.27;;;7.15;;
24873;SDS011;12945;42.648;23.370;2023-04-10T15:03:49;11.75;;;8.00;;
24873;SDS011;12945;42.648;23.370;2023-04-10T15:06:15;9.60;;;7.78;;
24873;SDS011;12945;42.648;23.370;2023-04-10T15:08:40;11.05;;;8.35;;
24873;SDS011;12945;42.648;23.370;2023-04-10T15:11:06;13.85;;;8.15;;
24873;SDS011;12945;42.648;23.370;2023-04-10T15:13:31;12.85;;;8.65;;
24873;SDS011;12945;42.648;23.370;2023-04-10T15:15:57;10.77;;;8.60;;